Time;durP1;ratioP1;P1;durP2;ratioP2;P2;SDS_P1;SDS_P2;PMS_P1;PMS_P2;Temp;Humidity;BMP_temperature;BMP_pressure;BME280_temperature;BME280_humidity;BME280_pressure;Samples;Min_cycle;Max_cycle;Signal;HPM_P1;HPM_P2
2022/07/30 00:01:27;;;;;;;3.55;1.92;;;16.30;99.90;;;;;;4980725;28;20066;-92
2022/07/30 00:03:52;;;;;;;6.18;2.08;;;16.30;99.90;;;;;;4975700;28;20027;-93
2022/07/30 00:06:18;;;;;;;5.75;2.10;;;16.30;99.90;;;;;;4974263;28;20600;-92
2022/07/30 00:08:46;;;;;;;5.30;2.20;;;16.30;99.90;;;;;;4975837;28;20027;-91
2022/07/30 00:11:12;;;;;;;4.60;2.47;;;16.20;99.90;;;;;;4957914;28;20046;-92
2022/07/30 00:13:38;;;;;;;4.93;1.80;;;16.20;99.90;;;;;;4958030;28;20314;-94
2022/07/30 00:16:03;;;;;;;10.48;2.30;;;16.20;99.90;;;;;;4974574;28;20034;-93
2022/07/30 00:18:29;;;;;;;6.35;1.70;;;16.10;99.90;;;;;;4958061;28;20030;-93
2022/07/30 00:20:55;;;;;;;8.68;2.15;;;16.10;99.90;;;;;;4974184;28;20093;-93
2022/07/30 00:23:20;;;;;;;4.13;1.80;;;16.10;99.90;;;;;;4975043;28;20027;-93
2022/07/30 00:25:46;;;;;;;7.22;2.00;;;16.10;99.90;;;;;;4958258;28;20055;-92
2022/07/30 00:28:12;;;;;;;7.30;1.80;;;16.10;99.90;;;;;;4957911;28;20567;-92
2022/07/30 00:30:39;;;;;;;5.50;1.65;;;16.00;99.90;;;;;;4974549;28;20035;-91
2022/07/30 00:33:05;;;;;;;6.55;2.70;;;15.90;99.90;;;;;;4975225;28;20090;-93
2022/07/30 00:35:31;;;;;;;9.43;2.40;;;15.90;99.90;;;;;;4959931;28;20031;-94
2022/07/30 00:37:56;;;;;;;5.50;2.13;;;15.90;99.90;;;;;;4976736;28;20074;-92
2022/07/30 00:40:22;;;;;;;7.80;2.00;;;15.80;99.90;;;;;;4977429;28;20495;-92
2022/07/30 00:42:48;;;;;;;5.13;1.65;;;15.70;99.90;;;;;;4976665;28;20039;-92
2022/07/30 00:45:16;;;;;;;5.22;2.05;;;15.70;99.90;;;;;;4978838;28;20030;-91
2022/07/30 00:47:42;;;;;;;2.95;1.83;;;15.70;99.90;;;;;;4995744;28;20034;-93
2022/07/30 00:50:09;;;;;;;6.30;1.70;;;15.70;99.90;;;;;;4979013;28;20059;-93
2022/07/30 00:52:39;;;;;;;4.32;1.70;;;15.70;99.90;;;;;;4977833;28;20196;-93
2022/07/30 00:55:11;;;;;;;4.10;2.05;;;15.70;99.90;;;;;;4981074;28;20054;-91
2022/07/30 00:57:36;;;;;;;3.42;1.98;;;15.70;99.90;;;;;;4997733;28;20074;-91
2022/07/30 01:00:08;;;;;;;4.68;2.22;;;15.70;99.90;;;;;;4986306;28;20031;-94
2022/07/30 01:02:34;;;;;;;6.43;2.22;;;15.70;99.90;;;;;;4964746;28;20385;-92
2022/07/30 01:05:00;;;;;;;13.07;2.63;;;15.70;99.90;;;;;;4985922;28;20035;-92
2022/07/30 01:07:26;;;;;;;6.82;2.17;;;15.70;99.90;;;;;;4991981;28;20077;-94
2022/07/30 01:09:51;;;;;;;6.32;2.53;;;15.70;99.90;;;;;;4983285;28;20477;-93
2022/07/30 01:12:22;;;;;;;8.13;2.85;;;15.60;99.90;;;;;;4980149;28;20035;-94
2022/07/30 01:14:48;;;;;;;6.85;3.17;;;15.60;99.90;;;;;;4963928;28;20023;-94
2022/07/30 01:17:14;;;;;;;4.53;2.50;;;15.70;99.90;;;;;;4965170;28;20039;-94
2022/07/30 01:19:47;;;;;;;4.72;2.47;;;15.70;99.90;;;;;;4985140;28;20027;-95
2022/07/30 01:22:27;;;;;;;6.40;3.10;;;15.70;99.90;;;;;;4990575;28;20027;-95
2022/07/30 01:25:13;;;;;;;7.25;2.70;;;15.60;99.90;;;;;;4981153;28;20038;-93
2022/07/30 01:28:03;;;;;;;6.97;2.92;;;15.60;99.90;;;;;;4970905;28;20096;-94
2022/07/30 01:30:33;;;;;;;6.93;2.67;;;15.60;99.90;;;;;;4974897;28;20034;-95
2022/07/30 01:32:59;;;;;;;10.33;2.73;;;15.50;99.90;;;;;;4966737;28;20053;-94
2022/07/30 01:35:28;;;;;;;11.35;2.95;;;15.50;99.90;;;;;;4982499;28;20035;-94
2022/07/30 01:37:55;;;;;;;6.55;3.10;;;15.40;99.90;;;;;;4984610;28;20019;-95
2022/07/30 01:40:24;;;;;;;6.10;2.60;;;15.40;99.90;;;;;;4967650;28;20035;-96
2022/07/30 01:42:57;;;;;;;5.15;2.80;;;15.40;99.90;;;;;;4965787;28;20019;-95
2022/07/30 01:45:25;;;;;;;4.97;3.20;;;15.40;99.90;;;;;;4963069;28;20037;-96
2022/07/30 01:47:57;;;;;;;6.38;3.42;;;15.40;99.90;;;;;;4962025;28;20477;-95
2022/07/30 01:50:24;;;;;;;7.38;2.95;;;15.40;99.90;;;;;;4978786;28;20396;-95
2022/07/30 01:52:52;;;;;;;6.95;3.20;;;15.30;99.90;;;;;;4978794;28;20033;-95
2022/07/30 01:55:35;;;;;;;5.07;2.65;;;15.30;99.90;;;;;;4978747;28;20057;-96
2022/07/30 01:58:04;;;;;;;7.47;2.90;;;15.30;99.90;;;;;;4978665;28;20113;-95
2022/07/30 02:00:33;;;;;;;6.53;2.75;;;15.20;99.90;;;;;;4961410;28;20034;-94
2022/07/30 02:02:59;;;;;;;5.35;2.70;;;15.20;99.90;;;;;;4961740;28;20023;-95
2022/07/30 02:05:30;;;;;;;4.15;2.75;;;15.20;99.90;;;;;;4978494;28;20523;-95
2022/07/30 02:08:02;;;;;;;6.30;2.60;;;15.10;99.90;;;;;;4960763;28;20042;-95
2022/07/30 02:10:30;;;;;;;5.55;3.30;;;15.10;99.90;;;;;;4960338;28;20039;-96
2022/07/30 02:12:59;;;;;;;15.57;4.40;;;15.10;99.90;;;;;;4978443;28;20042;-95
2022/07/30 02:15:33;;;;;;;5.85;3.53;;;15.10;99.90;;;;;;4961017;28;20504;-94
2022/07/30 02:18:20;;;;;;;4.30;3.13;;;15.10;99.90;;;;;;4961141;28;20019;-96
2022/07/30 02:20:57;;;;;;;5.70;3.28;;;15.10;99.90;;;;;;4977970;28;20431;-93
2022/07/30 02:23:25;;;;;;;7.43;3.17;;;15.00;99.90;;;;;;4960922;28;20027;-94
2022/07/30 02:25:51;;;;;;;6.85;3.28;;;15.00;99.90;;;;;;4961350;28;20034;-95
2022/07/30 02:28:20;;;;;;;4.78;2.97;;;15.00;99.90;;;;;;4979165;28;20027;-94
2022/07/30 02:30:56;;;;;;;5.90;3.17;;;14.90;99.90;;;;;;4965777;28;20046;-93
2022/07/30 02:33:26;;;;;;;6.90;2.97;;;14.90;99.90;;;;;;4995892;28;20003;-93
2022/07/30 02:35:54;;;;;;;8.43;3.53;;;14.90;99.90;;;;;;4972259;28;20033;-94
2022/07/30 02:38:20;;;;;;;8.00;3.60;;;15.00;99.90;;;;;;4963818;28;20082;-95
2022/07/30 02:40:47;;;;;;;10.23;3.70;;;15.00;99.90;;;;;;4961402;28;20495;-95
2022/07/30 02:43:17;;;;;;;7.47;4.10;;;15.00;99.90;;;;;;4960784;28;20035;-95
2022/07/30 02:45:46;;;;;;;8.00;3.05;;;15.00;99.90;;;;;;4960674;28;20038;-95
2022/07/30 02:48:14;;;;;;;6.83;3.43;;;15.00;99.90;;;;;;4960281;28;20389;-95
2022/07/30 02:50:40;;;;;;;9.50;3.65;;;15.00;99.90;;;;;;4960174;28;20159;-95
2022/07/30 02:53:08;;;;;;;7.38;4.10;;;15.00;99.90;;;;;;4960667;28;20031;-94
2022/07/30 02:55:36;;;;;;;4.00;3.33;;;15.00;99.90;;;;;;4960251;28;20044;-96
2022/07/30 02:58:04;;;;;;;9.85;3.65;;;15.00;99.90;;;;;;4960415;28;20491;-95
2022/07/30 03:00:31;;;;;;;4.22;3.00;;;15.00;99.90;;;;;;4977182;28;20074;-95
2022/07/30 03:02:58;;;;;;;8.23;3.60;;;14.90;99.90;;;;;;4959993;28;20027;-95
2022/07/30 03:05:25;;;;;;;9.77;4.55;;;14.90;99.90;;;;;;4959890;28;20397;-95
2022/07/30 03:07:55;;;;;;;8.40;3.72;;;14.90;99.90;;;;;;4977445;28;20023;-93
2022/07/30 03:10:21;;;;;;;8.85;3.70;;;14.90;99.90;;;;;;4961156;28;20139;-95
2022/07/30 03:12:50;;;;;;;6.68;3.55;;;14.90;99.90;;;;;;4966611;28;20022;-93
2022/07/30 03:15:16;;;;;;;8.00;3.20;;;14.80;99.90;;;;;;4984568;28;20094;-93
2022/07/30 03:17:44;;;;;;;5.07;3.42;;;14.80;99.90;;;;;;4959847;28;20055;-96
2022/07/30 03:20:17;;;;;;;7.38;3.92;;;14.80;99.90;;;;;;4977062;28;20035;-93
2022/07/30 03:22:48;;;;;;;5.32;3.72;;;14.80;99.90;;;;;;4977202;28;20202;-95
2022/07/30 03:25:18;;;;;;;6.03;3.92;;;14.80;99.90;;;;;;4959580;28;20029;-94
2022/07/30 03:27:45;;;;;;;11.95;3.53;;;14.80;99.90;;;;;;4977190;28;20057;-95
2022/07/30 03:30:11;;;;;;;8.63;3.95;;;14.70;99.90;;;;;;4959655;28;20026;-95
2022/07/30 03:32:38;;;;;;;7.97;3.90;;;14.70;99.90;;;;;;4959432;28;20041;-95
2022/07/30 03:35:06;;;;;;;10.82;4.40;;;14.70;99.90;;;;;;4957639;28;20037;-95
2022/07/30 03:37:35;;;;;;;7.10;4.15;;;14.70;99.90;;;;;;4976881;28;20041;-95
2022/07/30 03:40:03;;;;;;;6.72;4.10;;;14.70;99.90;;;;;;4959513;28;20034;-95
2022/07/30 03:42:30;;;;;;;6.93;3.72;;;14.70;99.90;;;;;;4976532;28;20432;-96
2022/07/30 03:44:56;;;;;;;9.60;4.03;;;14.70;99.90;;;;;;4976704;28;20026;-95
2022/07/30 03:47:24;;;;;;;9.57;3.95;;;14.70;99.90;;;;;;4959367;28;20143;-94
2022/07/30 03:49:51;;;;;;;6.22;3.53;;;14.70;99.90;;;;;;4975723;28;20492;-95
2022/07/30 03:52:18;;;;;;;7.15;4.22;;;14.70;99.90;;;;;;4959598;28;20629;-95
2022/07/30 03:54:46;;;;;;;3.97;3.22;;;14.70;99.90;;;;;;4976747;28;20031;-94
2022/07/30 03:57:12;;;;;;;4.97;3.88;;;14.70;99.90;;;;;;4959222;28;20043;-92
2022/07/30 03:59:38;;;;;;;6.00;3.90;;;14.70;99.90;;;;;;4959610;28;20074;-94
2022/07/30 04:02:04;;;;;;;7.97;4.05;;;14.70;99.90;;;;;;4975561;28;20039;-94
2022/07/30 04:04:30;;;;;;;6.63;3.63;;;14.70;99.90;;;;;;4959058;28;20569;-93
2022/07/30 04:06:57;;;;;;;8.60;4.30;;;14.70;99.90;;;;;;4976654;28;20033;-92
2022/07/30 04:09:23;;;;;;;6.07;4.20;;;14.70;99.90;;;;;;4958827;28;20026;-95
2022/07/30 04:11:49;;;;;;;6.13;4.03;;;14.70;99.90;;;;;;4975643;28;20050;-94
2022/07/30 04:14:15;;;;;;;7.90;3.83;;;14.70;99.90;;;;;;4959007;28;20027;-96
2022/07/30 04:17:03;;;;;;;6.50;3.50;;;14.70;99.90;;;;;;4959516;28;20051;-94
2022/07/30 04:19:45;;;;;;;7.28;3.90;;;14.70;99.90;;;;;;4975834;28;20380;-96
2022/07/30 04:22:15;;;;;;;6.28;3.80;;;14.70;99.90;;;;;;4975527;28;20038;-94
2022/07/30 04:24:43;;;;;;;9.13;3.70;;;14.60;99.90;;;;;;4975919;28;20034;-94
2022/07/30 04:27:09;;;;;;;5.32;3.88;;;14.60;99.90;;;;;;4959536;28;20027;-95
2022/07/30 04:29:35;;;;;;;6.40;3.88;;;14.60;99.90;;;;;;4962420;28;20041;-94
2022/07/30 04:32:01;;;;;;;5.53;4.30;;;14.60;99.90;;;;;;4962336;28;20035;-95
2022/07/30 04:34:27;;;;;;;6.80;4.00;;;14.60;99.90;;;;;;4979478;28;20038;-95
2022/07/30 04:36:52;;;;;;;7.80;4.32;;;14.60;99.90;;;;;;4979019;28;20037;-95
2022/07/30 04:39:18;;;;;;;9.73;3.88;;;14.70;99.90;;;;;;4978806;28;20046;-93
2022/07/30 04:41:44;;;;;;;7.63;3.95;;;14.60;99.90;;;;;;4979453;28;20022;-94
2022/07/30 04:44:10;;;;;;;10.80;4.40;;;14.70;99.90;;;;;;4962842;28;20034;-94
2022/07/30 04:46:36;;;;;;;10.18;3.85;;;14.70;99.90;;;;;;4978843;28;20125;-93
2022/07/30 04:49:02;;;;;;;5.22;4.10;;;14.70;99.90;;;;;;4979950;28;20023;-94
2022/07/30 04:51:34;;;;;;;5.85;4.00;;;14.70;99.90;;;;;;4980562;28;20039;-92
2022/07/30 04:54:02;;;;;;;9.88;4.35;;;14.70;99.90;;;;;;4966965;28;20131;-93
2022/07/30 04:56:29;;;;;;;5.82;4.25;;;14.70;99.90;;;;;;4966851;28;20082;-93
2022/07/30 04:58:55;;;;;;;6.68;4.22;;;14.70;99.90;;;;;;4966379;28;20078;-94
2022/07/30 05:01:26;;;;;;;10.45;4.78;;;14.70;99.90;;;;;;4992653;28;20066;-92
2022/07/30 05:03:52;;;;;;;5.03;3.70;;;14.70;99.90;;;;;;4995095;28;20034;-93
2022/07/30 05:06:20;;;;;;;9.95;3.97;;;14.70;99.90;;;;;;4987160;28;20097;-95
2022/07/30 05:08:46;;;;;;;7.05;4.10;;;14.70;99.90;;;;;;4963595;28;20048;-94
2022/07/30 05:11:15;;;;;;;7.75;4.20;;;14.70;99.90;;;;;;4979954;28;20031;-94
2022/07/30 05:13:44;;;;;;;7.88;5.05;;;14.70;99.90;;;;;;4978427;28;20071;-94
2022/07/30 05:16:10;;;;;;;8.88;4.35;;;14.70;99.90;;;;;;4962298;28;20121;-95
2022/07/30 05:18:36;;;;;;;9.02;4.85;;;14.70;99.90;;;;;;4978925;28;20058;-96
2022/07/30 05:21:03;;;;;;;2.92;2.30;;;14.80;99.90;;;;;;4962094;28;20026;-95
2022/07/30 05:23:29;;;;;;;7.63;4.43;;;14.90;99.90;;;;;;4945574;28;20093;-95
2022/07/30 05:25:55;;;;;;;12.18;4.82;;;14.90;99.90;;;;;;4979284;28;20035;-95
2022/07/30 05:28:21;;;;;;;6.38;3.80;;;14.90;99.90;;;;;;4978980;28;20181;-94
2022/07/30 05:30:47;;;;;;;3.92;3.15;;;15.00;99.90;;;;;;4977718;28;20038;-95
2022/07/30 05:33:13;;;;;;;8.07;3.80;;;15.00;99.90;;;;;;4961653;28;20026;-94
2022/07/30 05:35:39;;;;;;;7.43;3.92;;;15.10;99.90;;;;;;4977515;28;20038;-94
2022/07/30 05:38:04;;;;;;;5.78;3.78;;;15.10;99.90;;;;;;4961808;28;20031;-94
2022/07/30 05:40:30;;;;;;;5.45;3.80;;;15.20;99.90;;;;;;4977766;28;20050;-93
2022/07/30 05:42:56;;;;;;;4.38;2.88;;;15.20;99.90;;;;;;4980214;28;20031;-92
2022/07/30 05:45:21;;;;;;;6.82;2.92;;;15.30;99.90;;;;;;4980650;28;20380;-91
2022/07/30 05:47:47;;;;;;;7.35;2.30;;;15.30;99.90;;;;;;4980297;28;20504;-93
2022/07/30 05:50:13;;;;;;;4.53;2.55;;;15.30;99.90;;;;;;4982324;28;20045;-93
2022/07/30 05:52:38;;;;;;;5.78;2.10;;;15.30;99.90;;;;;;4991800;28;20035;-92
2022/07/30 05:55:05;;;;;;;8.98;3.47;;;15.40;99.90;;;;;;4979868;28;20038;-89
2022/07/30 05:57:33;;;;;;;5.75;2.30;;;15.40;99.90;;;;;;4981751;28;20022;-91
2022/07/30 06:00:00;;;;;;;3.45;2.25;;;15.50;99.90;;;;;;4996828;28;20105;-91
2022/07/30 06:02:25;;;;;;;3.95;2.10;;;15.50;99.90;;;;;;4967532;28;20038;-91
2022/07/30 06:04:51;;;;;;;4.05;2.55;;;15.50;99.90;;;;;;4977213;28;20033;-93
2022/07/30 06:07:17;;;;;;;3.58;2.30;;;15.60;99.90;;;;;;4977391;28;20034;-95
2022/07/30 06:09:43;;;;;;;5.50;2.95;;;15.60;99.90;;;;;;4976497;28;20022;-93
2022/07/30 06:12:08;;;;;;;3.53;2.45;;;15.60;99.90;;;;;;4976496;28;20106;-93
2022/07/30 06:14:34;;;;;;;3.63;2.58;;;15.60;99.90;;;;;;4977015;28;20043;-93
2022/07/30 06:17:00;;;;;;;2.80;2.40;;;15.70;99.90;;;;;;4976305;28;20027;-92
2022/07/30 06:19:25;;;;;;;3.90;2.60;;;15.70;99.90;;;;;;4976999;28;20034;-92
2022/07/30 06:21:51;;;;;;;6.25;2.70;;;15.70;99.90;;;;;;4976481;28;20058;-94
2022/07/30 06:24:17;;;;;;;3.47;2.50;;;15.70;99.90;;;;;;4976593;28;20170;-93
2022/07/30 06:26:43;;;;;;;3.95;1.90;;;15.70;99.90;;;;;;4976825;28;20080;-93
2022/07/30 06:29:08;;;;;;;3.80;2.63;;;15.80;99.90;;;;;;4976244;28;20045;-94
2022/07/30 06:31:34;;;;;;;3.65;2.05;;;15.80;99.90;;;;;;4977783;28;20031;-94
2022/07/30 06:34:00;;;;;;;2.75;2.00;;;15.80;99.90;;;;;;4978122;28;20046;-94
2022/07/30 06:36:25;;;;;;;5.93;2.60;;;15.80;99.90;;;;;;4976164;28;20032;-94
2022/07/30 06:38:51;;;;;;;5.57;2.70;;;15.80;99.90;;;;;;4976772;28;20030;-94
2022/07/30 06:41:17;;;;;;;3.95;2.17;;;15.90;99.90;;;;;;4977441;28;20035;-94
2022/07/30 06:43:42;;;;;;;3.95;2.33;;;15.90;99.90;;;;;;4975711;28;20023;-93
2022/07/30 06:46:08;;;;;;;2.40;2.05;;;15.90;99.90;;;;;;4978886;28;20041;-94
2022/07/30 06:48:35;;;;;;;3.30;2.20;;;15.90;99.90;;;;;;4977225;28;20018;-93
2022/07/30 06:51:01;;;;;;;3.95;2.25;;;16.00;99.90;;;;;;4960022;28;20038;-94
2022/07/30 06:53:27;;;;;;;2.75;1.83;;;16.00;99.90;;;;;;4983837;28;20015;-94
2022/07/30 06:55:53;;;;;;;4.22;1.90;;;16.00;99.90;;;;;;4982052;28;20125;-95
2022/07/30 06:58:18;;;;;;;4.45;2.50;;;16.00;99.90;;;;;;4977542;28;20053;-94
2022/07/30 07:00:44;;;;;;;3.10;2.05;;;16.00;99.90;;;;;;4977437;28;20031;-94
2022/07/30 07:03:10;;;;;;;4.50;2.42;;;16.10;99.90;;;;;;4976435;28;20046;-91
2022/07/30 07:05:37;;;;;;;6.03;2.53;;;16.10;99.90;;;;;;4959983;28;20019;-94
2022/07/30 07:08:03;;;;;;;3.47;2.10;;;16.10;99.90;;;;;;4959244;28;20031;-94
2022/07/30 07:10:28;;;;;;;8.85;2.95;;;16.20;99.90;;;;;;4976280;28;20591;-93
2022/07/30 07:12:54;;;;;;;4.47;2.58;;;16.20;99.90;;;;;;4975389;28;20058;-93
2022/07/30 07:15:21;;;;;;;3.42;2.72;;;16.20;99.90;;;;;;4977191;28;20049;-91
2022/07/30 07:17:46;;;;;;;6.03;2.92;;;16.20;99.90;;;;;;4976671;28;20548;-93
2022/07/30 07:20:12;;;;;;;4.57;2.50;;;16.20;99.90;;;;;;4978041;28;20050;-94
2022/07/30 07:22:38;;;;;;;4.40;2.55;;;16.30;99.90;;;;;;4977072;28;20031;-93
2022/07/30 07:25:04;;;;;;;7.65;3.20;;;16.30;99.90;;;;;;4959325;28;20383;-93
2022/07/30 07:27:30;;;;;;;4.78;2.88;;;16.30;99.90;;;;;;4959422;28;20150;-93
2022/07/30 07:29:56;;;;;;;3.47;2.40;;;16.40;99.90;;;;;;4976206;28;20058;-92
2022/07/30 07:32:22;;;;;;;7.13;2.42;;;16.40;99.90;;;;;;4975227;28;20031;-94
2022/07/30 07:34:47;;;;;;;4.25;2.28;;;16.40;99.90;;;;;;4975226;28;20034;-93
2022/07/30 07:37:14;;;;;;;2.88;2.28;;;16.50;99.90;;;;;;4975339;28;20117;-92
2022/07/30 07:39:40;;;;;;;5.22;2.83;;;16.50;99.90;;;;;;4959145;28;20026;-93
2022/07/30 07:42:06;;;;;;;3.42;2.08;;;16.50;99.90;;;;;;4959044;28;20465;-91
2022/07/30 07:44:32;;;;;;;3.42;2.03;;;16.50;99.90;;;;;;4975027;28;20034;-93
2022/07/30 07:46:58;;;;;;;3.65;2.70;;;16.60;99.90;;;;;;4959005;28;20105;-92
2022/07/30 07:49:23;;;;;;;5.50;2.63;;;16.60;99.90;;;;;;4974918;28;20027;-92
2022/07/30 07:51:49;;;;;;;5.45;2.75;;;16.60;99.90;;;;;;4958507;28;20034;-92
2022/07/30 07:54:16;;;;;;;3.22;2.40;;;16.60;99.90;;;;;;4975456;28;20019;-93
2022/07/30 07:56:41;;;;;;;4.53;2.83;;;16.60;99.90;;;;;;4958272;28;20054;-92
2022/07/30 07:59:07;;;;;;;5.22;2.25;;;16.60;99.90;;;;;;4975943;28;20027;-93
2022/07/30 08:01:33;;;;;;;3.63;2.67;;;16.60;99.90;;;;;;4974825;28;20057;-92
2022/07/30 08:03:59;;;;;;;3.90;2.10;;;16.70;99.90;;;;;;4980169;28;20045;-92
2022/07/30 08:06:25;;;;;;;3.42;2.10;;;16.70;99.90;;;;;;4978874;28;20031;-95
2022/07/30 08:08:50;;;;;;;5.07;2.55;;;16.70;99.90;;;;;;4978810;28;20042;-93
2022/07/30 08:11:16;;;;;;;3.78;2.20;;;16.70;99.90;;;;;;4979220;28;20045;-93
2022/07/30 08:13:42;;;;;;;4.40;2.50;;;16.70;99.90;;;;;;4979219;28;20054;-91
2022/07/30 08:16:09;;;;;;;4.32;2.20;;;16.70;99.90;;;;;;4962850;28;20039;-92
2022/07/30 08:18:37;;;;;;;8.27;2.72;;;16.70;99.90;;;;;;4979885;28;20481;-93
2022/07/30 08:21:04;;;;;;;4.72;2.72;;;16.80;99.90;;;;;;4979045;28;20043;-93
2022/07/30 08:23:30;;;;;;;4.10;2.88;;;16.80;99.90;;;;;;4978286;28;20571;-93
2022/07/30 08:25:57;;;;;;;5.07;3.03;;;16.80;99.90;;;;;;4979696;28;20034;-94
2022/07/30 08:28:23;;;;;;;9.23;3.63;;;16.80;99.90;;;;;;4980081;28;20029;-92
2022/07/30 08:30:49;;;;;;;4.90;2.60;;;16.90;99.90;;;;;;4962356;28;20042;-94
2022/07/30 08:33:15;;;;;;;5.28;3.03;;;16.90;99.90;;;;;;4978592;28;20058;-92
2022/07/30 08:35:41;;;;;;;5.55;2.63;;;17.00;99.90;;;;;;4962616;28;20039;-92
2022/07/30 08:38:07;;;;;;;6.70;3.00;;;17.00;99.90;;;;;;4979592;28;20114;-92
2022/07/30 08:40:34;;;;;;;3.22;2.47;;;17.10;99.90;;;;;;4980663;28;20050;-92
2022/07/30 08:43:03;;;;;;;4.32;2.47;;;17.20;99.90;;;;;;4966170;28;20035;-94
2022/07/30 08:45:30;;;;;;;2.95;2.50;;;17.20;99.90;;;;;;4989155;28;20023;-92
2022/07/30 08:47:59;;;;;;;6.07;2.88;;;17.30;99.90;;;;;;4962523;28;20444;-92
2022/07/30 08:50:25;;;;;;;5.15;2.70;;;17.40;99.90;;;;;;4961853;28;20041;-92
2022/07/30 08:52:54;;;;;;;3.92;2.90;;;17.40;99.90;;;;;;4946320;28;20066;-92
2022/07/30 08:55:21;;;;;;;5.05;2.70;;;17.50;99.90;;;;;;4961303;28;20085;-91
2022/07/30 08:57:47;;;;;;;5.82;2.50;;;17.50;99.90;;;;;;4962374;28;20104;-93
2022/07/30 09:00:14;;;;;;;4.32;2.55;;;17.50;99.90;;;;;;4978847;28;20495;-91
2022/07/30 09:02:40;;;;;;;2.50;2.30;;;17.60;99.90;;;;;;4961961;28;20033;-93
2022/07/30 09:05:07;;;;;;;7.53;2.78;;;17.60;99.90;;;;;;4978640;28;20038;-93
2022/07/30 09:07:33;;;;;;;3.08;2.20;;;17.70;99.90;;;;;;4961422;28;20066;-92
2022/07/30 09:09:59;;;;;;;4.25;2.58;;;17.70;99.90;;;;;;4978947;28;20093;-92
2022/07/30 09:12:43;;;;;;;4.20;2.28;;;17.70;99.90;;;;;;4977580;28;20026;-92
2022/07/30 09:15:16;;;;;;;2.30;2.10;;;17.80;99.90;;;;;;4960325;28;20030;-93
2022/07/30 09:18:02;;;;;;;3.42;2.30;;;17.80;99.90;;;;;;4961730;28;20023;-91
2022/07/30 09:20:35;;;;;;;5.38;2.60;;;17.80;99.90;;;;;;4961956;28;20081;-91
2022/07/30 09:23:04;;;;;;;3.42;2.45;;;17.80;99.90;;;;;;4977364;28;20037;-90
2022/07/30 09:25:38;;;;;;;3.28;2.35;;;17.80;99.90;;;;;;4963896;28;20023;-91
2022/07/30 09:28:05;;;;;;;3.50;2.33;;;17.80;99.90;;;;;;4964261;28;20058;-91
2022/07/30 09:30:52;;;;;;;4.40;2.03;;;17.80;99.90;;;;;;4965186;28;20030;-93
2022/07/30 09:33:42;;;;;;;4.10;1.85;;;17.90;99.90;;;;;;4979001;28;20077;-91
2022/07/30 09:36:10;;;;;;;2.53;2.10;;;17.90;99.90;;;;;;4961285;28;20142;-93
2022/07/30 09:38:52;;;;;;;5.18;2.08;;;17.90;99.90;;;;;;4961106;28;20066;-92
2022/07/30 09:41:30;;;;;;;2.65;1.50;;;17.90;99.90;;;;;;4978529;28;20035;-94
2022/07/30 09:43:56;;;;;;;3.65;1.65;;;17.90;99.90;;;;;;4978757;28;20026;-92
2022/07/30 09:46:22;;;;;;;5.72;1.77;;;17.90;99.90;;;;;;4977569;28;20392;-91
2022/07/30 09:48:48;;;;;;;3.13;1.80;;;18.00;99.90;;;;;;4976807;28;20059;-91
2022/07/30 09:51:14;;;;;;;3.80;1.42;;;18.00;99.90;;;;;;4976756;28;20059;-90
2022/07/30 09:53:58;;;;;;;2.03;1.52;;;18.00;99.90;;;;;;4976795;28;20034;-93
2022/07/30 09:56:28;;;;;;;1.75;1.63;;;18.10;99.90;;;;;;4978059;28;20051;-92
2022/07/30 09:58:54;;;;;;;1.50;1.30;;;18.10;99.90;;;;;;4961464;28;20059;-93
2022/07/30 10:01:21;;;;;;;1.73;1.00;;;18.10;99.90;;;;;;4976934;28;20484;-92
2022/07/30 10:03:52;;;;;;;1.42;0.90;;;18.20;99.90;;;;;;4979346;28;20039;-92
2022/07/30 10:06:18;;;;;;;1.50;0.90;;;18.20;99.90;;;;;;4976616;28;20027;-92
2022/07/30 10:08:48;;;;;;;1.35;0.88;;;18.20;99.90;;;;;;4977178;28;20042;-93
2022/07/30 10:11:17;;;;;;;1.58;0.75;;;18.30;99.90;;;;;;4960648;28;20413;-91
2022/07/30 10:13:45;;;;;;;1.58;0.88;;;18.30;99.90;;;;;;4978323;28;20035;-92
2022/07/30 10:16:10;;;;;;;0.80;0.80;;;18.30;99.90;;;;;;4960868;28;20145;-93
2022/07/30 10:18:37;;;;;;;0.88;0.80;;;18.40;99.90;;;;;;4979620;28;20135;-92
2022/07/30 10:21:03;;;;;;;3.70;1.08;;;18.40;99.90;;;;;;4979341;28;20027;-92
2022/07/30 10:23:31;;;;;;;1.33;0.90;;;18.50;99.90;;;;;;4978609;28;20042;-91
2022/07/30 10:25:58;;;;;;;1.30;1.20;;;18.50;99.90;;;;;;4977864;28;20023;-91
2022/07/30 10:28:25;;;;;;;1.15;0.95;;;18.50;99.90;;;;;;4960417;28;20054;-92
2022/07/30 10:30:52;;;;;;;1.10;1.00;;;18.50;99.90;;;;;;4960714;28;20548;-92
2022/07/30 10:33:20;;;;;;;0.90;0.90;;;18.60;99.90;;;;;;4981513;28;20027;-91
2022/07/30 10:35:46;;;;;;;3.80;1.20;;;18.60;99.90;;;;;;4992450;28;20038;-92
2022/07/30 10:38:15;;;;;;;1.75;1.20;;;18.60;99.90;;;;;;4988675;28;20027;-92
2022/07/30 10:41:03;;;;;;;1.10;1.00;;;18.60;99.90;;;;;;4989278;28;20038;-91
2022/07/30 10:43:43;;;;;;;1.83;1.15;;;18.60;99.90;;;;;;4990193;28;20097;-91
2022/07/30 10:46:28;;;;;;;;;;;18.60;99.90;;;;;;4977013;28;20524;-88
2022/07/30 10:48:56;;;;;;;1.90;1.23;;;18.60;99.90;;;;;;4967315;28;19910;-92
2022/07/30 10:51:22;;;;;;;3.47;1.30;;;18.60;99.90;;;;;;4962797;28;20034;-91
2022/07/30 10:53:49;;;;;;;1.33;1.20;;;18.60;99.90;;;;;;4979312;28;20389;-92
2022/07/30 10:56:19;;;;;;;1.52;1.20;;;18.60;99.90;;;;;;4977209;28;20042;-92
2022/07/30 10:59:05;;;;;;;1.08;1.00;;;18.60;99.90;;;;;;4978473;28;20046;-92
2022/07/30 11:01:46;;;;;;;1.77;1.40;;;18.60;99.90;;;;;;4978156;28;20031;-92
2022/07/30 11:04:23;;;;;;;1.40;1.30;;;18.60;99.90;;;;;;4960841;28;20050;-93
2022/07/30 11:06:49;;;;;;;1.55;1.45;;;18.50;99.90;;;;;;4960710;28;20087;-93
2022/07/30 11:09:38;;;;;;;2.70;1.42;;;18.50;99.90;;;;;;4959903;28;20027;-92
2022/07/30 11:12:05;;;;;;;1.90;1.15;;;18.60;99.90;;;;;;4959968;28;20523;-91
2022/07/30 11:15:02;;;;;;;1.67;1.58;;;18.60;99.90;;;;;;4963077;28;20061;-91
2022/07/30 11:17:58;;;;;;;1.52;1.00;;;18.70;99.90;;;;;;4959094;28;20031;-91
2022/07/30 11:20:24;;;;;;;2.75;1.27;;;18.80;99.90;;;;;;4960045;28;20026;-92
2022/07/30 11:22:49;;;;;;;1.58;1.10;;;18.90;99.90;;;;;;4959464;28;20034;-91
2022/07/30 11:25:27;;;;;;;3.95;1.10;;;18.90;99.90;;;;;;4976932;28;20030;-92
2022/07/30 11:27:53;;;;;;;0.98;0.85;;;19.00;99.90;;;;;;4959564;28;20046;-92
2022/07/30 11:30:28;;;;;;;1.25;0.90;;;18.90;99.90;;;;;;4959889;28;20031;-92
2022/07/30 11:32:55;;;;;;;1.40;0.93;;;19.00;99.90;;;;;;4959302;28;20039;-91
2022/07/30 11:35:24;;;;;;;0.77;0.77;;;19.00;99.90;;;;;;4976669;28;20031;-91
2022/07/30 11:38:06;;;;;;;1.63;0.85;;;19.00;99.90;;;;;;4958766;28;20018;-92
2022/07/30 11:40:34;;;;;;;2.15;1.52;;;19.10;99.90;;;;;;4976462;28;20031;-92
2022/07/30 11:43:23;;;;;;;2.22;1.00;;;19.10;99.90;;;;;;4958794;28;20026;-91
2022/07/30 11:46:04;;;;;;;1.55;1.08;;;19.20;99.90;;;;;;4959293;28;20502;-92
2022/07/30 11:48:30;;;;;;;3.00;1.30;;;19.30;99.90;;;;;;4958982;28;20305;-92
2022/07/30 11:50:56;;;;;;;1.10;0.80;;;19.30;99.90;;;;;;4959199;28;20038;-93
2022/07/30 11:53:22;;;;;;;2.50;0.70;;;19.30;99.90;;;;;;4976236;28;20034;-92
2022/07/30 11:55:55;;;;;;;1.35;0.77;;;19.30;99.90;;;;;;4975960;28;20047;-90
2022/07/30 11:58:38;;;;;;;1.38;0.70;;;19.30;99.90;;;;;;4958884;28;20042;-93
2022/07/30 12:01:18;;;;;;;2.22;0.68;;;19.40;99.90;;;;;;4959065;28;20484;-92
2022/07/30 12:03:44;;;;;;;3.88;0.80;;;19.40;99.90;;;;;;4976207;28;20033;-93
2022/07/30 12:06:16;;;;;;;1.08;1.00;;;19.50;99.90;;;;;;4976428;28;20050;-94
2022/07/30 12:08:47;;;;;;;0.70;0.70;;;19.50;99.90;;;;;;4959359;28;20027;-93
2022/07/30 12:11:14;;;;;;;4.10;0.80;;;19.60;99.90;;;;;;4977430;28;20043;-93
2022/07/30 12:13:42;;;;;;;0.60;0.60;;;19.60;99.90;;;;;;4974977;28;20023;-93
2022/07/30 12:16:16;;;;;;;1.17;0.95;;;19.70;99.90;;;;;;4976230;28;20065;-91
2022/07/30 12:18:42;;;;;;;0.77;0.68;;;19.80;99.90;;;;;;4963902;28;20065;-92
2022/07/30 12:21:11;;;;;;;0.70;0.70;;;19.90;99.90;;;;;;4968936;28;20031;-92
2022/07/30 12:23:42;;;;;;;2.45;0.65;;;19.90;99.90;;;;;;4989265;28;20019;-90
2022/07/30 12:26:08;;;;;;;;;;;20.00;99.90;;;;;;4997761;28;20042;-91
2022/07/30 12:28:35;;;;;;;1.30;0.90;;;20.00;99.90;;;;;;4966065;28;20006;-93
2022/07/30 12:31:03;;;;;;;1.60;1.08;;;20.00;99.90;;;;;;4958913;28;20049;-93
2022/07/30 12:33:30;;;;;;;1.48;1.05;;;20.00;99.90;;;;;;4975973;28;20027;-92
2022/07/30 12:35:57;;;;;;;1.55;1.20;;;20.00;99.90;;;;;;4958706;28;20023;-93
2022/07/30 12:38:26;;;;;;;3.22;0.88;;;20.00;99.90;;;;;;4975644;28;20057;-94
2022/07/30 12:41:05;;;;;;;1.35;0.98;;;20.00;99.90;;;;;;4976127;28;20023;-92
2022/07/30 12:43:54;;;;;;;1.38;1.13;;;20.00;99.90;;;;;;4975733;28;20110;-91
2022/07/30 12:46:22;;;;;;;1.00;0.90;;;19.90;99.90;;;;;;4976148;28;20035;-93
2022/07/30 12:49:02;;;;;;;1.50;1.02;;;19.90;99.90;;;;;;4960195;28;20026;-91
2022/07/30 12:51:31;;;;;;;2.22;0.90;;;19.90;99.90;;;;;;4962211;28;20031;-93
2022/07/30 12:53:58;;;;;;;0.93;0.93;;;19.80;99.90;;;;;;4964871;28;20445;-91
2022/07/30 12:56:28;;;;;;;2.20;0.80;;;19.70;99.90;;;;;;4953618;28;20062;-93